createdAt,value
2018-02-07T08:28:06.888Z,8.50
2018-02-07T08:41:52.603Z,37.70
2018-02-07T08:44:19.821Z,36.53
2018-02-07T08:46:46.873Z,42.27
2018-02-07T08:49:14.048Z,45.63
2018-02-07T08:51:40.234Z,46.80
2018-02-07T08:54:06.533Z,43.97
2018-02-07T08:56:32.771Z,43.03
2018-02-07T08:59:00.816Z,45.20
2018-02-07T09:01:27.062Z,46.20
2018-02-07T09:03:54.028Z,46.72
2018-02-07T09:06:20.397Z,42.88
2018-02-07T09:08:47.460Z,55.22
2018-02-07T09:11:13.724Z,47.65
2018-02-07T09:13:39.972Z,48.63
2018-02-07T09:16:06.861Z,47.35
2018-02-07T09:18:33.139Z,41.30
2018-02-07T09:20:59.992Z,46.30
2018-02-07T09:23:27.058Z,43.33
2018-02-07T09:25:54.167Z,46.83
2018-02-07T09:28:20.422Z,41.00
2018-02-07T09:30:47.469Z,47.22
2018-02-07T09:33:14.845Z,44.05
2018-02-07T09:35:42.081Z,46.35
2018-02-07T09:38:08.334Z,42.95
2018-02-07T09:40:35.388Z,39.92
2018-02-07T09:43:02.330Z,49.55
2018-02-07T09:45:28.563Z,50.47
2018-02-07T09:47:55.205Z,50.63
2018-02-07T09:50:22.273Z,54.28
2018-02-07T09:52:50.640Z,52.55
2018-02-07T09:55:16.915Z,53.50
2018-02-07T09:57:43.176Z,51.33
2018-02-07T10:00:09.859Z,50.03
2018-02-07T10:02:37.007Z,56.97
2018-02-07T10:05:05.127Z,47.88
2018-02-07T10:07:32.103Z,49.17
2018-02-07T10:09:58.607Z,47.95
2018-02-07T10:12:24.874Z,53.85
2018-02-07T10:14:52.029Z,47.62
2018-02-07T10:17:18.986Z,51.78
2018-02-07T10:19:45.882Z,48.55
2018-02-07T10:22:13.278Z,47.55
2018-02-07T10:24:40.233Z,55.75
2018-02-07T10:27:06.759Z,51.70
2018-02-07T10:29:33.710Z,50.78
2018-02-07T10:31:59.903Z,43.40
2018-02-07T10:34:27.720Z,49.55
2018-02-07T10:36:54.811Z,42.78
2018-02-07T10:39:21.267Z,42.72
2018-02-07T10:41:49.152Z,43.97
2018-02-07T10:44:15.564Z,46.50
2018-02-07T10:46:42.512Z,41.45
2018-02-07T10:49:09.616Z,44.80
2018-02-07T10:51:36.199Z,44.28
2018-02-07T10:54:03.432Z,42.65
2018-02-07T10:56:29.731Z,50.47
2018-02-07T10:58:56.591Z,40.42
2018-02-07T11:01:24.061Z,41.95
2018-02-07T11:03:51.043Z,43.38
2018-02-07T11:06:17.556Z,47.15
2018-02-07T11:08:45.415Z,40.47
2018-02-07T11:11:12.390Z,45.35
2018-02-07T11:13:39.562Z,36.72
2018-02-07T11:16:06.154Z,42.13
2018-02-07T11:18:32.391Z,41.17
2018-02-07T11:21:00.232Z,42.22
2018-02-07T11:23:28.240Z,36.47
2018-02-07T11:25:54.463Z,45.70
2018-02-07T11:28:20.694Z,43.08
2018-02-07T11:30:47.229Z,50.30
2018-02-07T11:33:14.298Z,47.28
2018-02-07T11:35:40.563Z,44.03
2018-02-07T11:38:07.338Z,43.72
2018-02-07T11:40:33.887Z,42.80
2018-02-07T11:43:01.031Z,46.22
2018-02-07T11:45:28.020Z,43.78
2018-02-07T11:47:54.814Z,50.28
2018-02-07T11:50:21.139Z,47.83
2018-02-07T11:52:54.171Z,47.05
2018-02-07T11:55:20.469Z,50.22
2018-02-07T11:57:46.685Z,45.83
2018-02-07T12:00:13.253Z,48.60
2018-02-07T12:02:40.403Z,49.20
2018-02-07T12:05:06.589Z,46.90
2018-02-07T12:07:32.822Z,50.72
2018-02-07T12:09:59.749Z,49.08
2018-02-07T12:12:27.046Z,49.63
2018-02-07T12:14:55.078Z,49.42
2018-02-07T12:17:22.755Z,43.85
2018-02-07T12:19:49.597Z,46.30
2018-02-07T12:22:16.731Z,49.38
2018-02-07T12:24:43.705Z,54.92
2018-02-07T12:27:10.488Z,46.67
2018-02-07T12:29:36.691Z,45.53
2018-02-07T12:32:03.867Z,51.72
2018-02-07T12:34:30.087Z,44.85
2018-02-07T12:36:57.000Z,55.33
2018-02-07T12:39:23.904Z,47.05
2018-02-07T12:41:51.095Z,60.55
2018-02-07T12:44:17.380Z,54.47
2018-02-07T12:46:44.428Z,54.88
2018-02-07T12:49:10.877Z,50.53
2018-02-07T12:51:37.313Z,55.75
2018-02-07T12:54:05.253Z,52.95
2018-02-07T12:56:31.436Z,44.13
2018-02-07T12:58:58.252Z,53.83
2018-02-07T13:01:24.504Z,43.38
2018-02-07T13:03:50.707Z,50.53
2018-02-07T13:06:17.744Z,56.30
2018-02-07T13:08:45.270Z,55.72
2018-02-07T13:11:13.663Z,51.47
2018-02-07T13:13:40.634Z,50.30
2018-02-07T13:16:06.871Z,43.42
2018-02-07T13:18:33.577Z,60.45
2018-02-07T13:21:00.523Z,54.92
2018-02-07T13:23:28.370Z,60.92
2018-02-07T13:25:55.587Z,56.40
2018-02-07T13:28:21.799Z,49.70
2018-02-07T13:30:48.001Z,49.65
2018-02-07T13:33:14.793Z,65.53
2018-02-07T13:35:41.771Z,56.55
2018-02-07T13:38:07.976Z,54.60
2018-02-07T13:40:34.192Z,60.85
2018-02-07T13:43:00.441Z,59.15
2018-02-07T13:45:26.631Z,59.42
2018-02-07T13:47:52.832Z,60.75
2018-02-07T13:50:19.326Z,56.45
2018-02-07T13:52:46.847Z,70.18
2018-02-07T13:55:13.370Z,67.43
2018-02-07T13:57:39.595Z,53.47
2018-02-07T14:00:05.928Z,58.92
2018-02-07T14:02:32.562Z,64.20
2018-02-07T14:04:59.250Z,60.10
2018-02-07T14:07:26.820Z,73.72
2018-02-07T14:09:53.794Z,59.15
2018-02-07T14:12:21.149Z,65.75
2018-02-07T14:14:49.520Z,58.00
2018-02-07T14:17:16.609Z,58.67
2018-02-07T14:19:43.496Z,56.67
2018-02-07T14:22:10.230Z,57.17
2018-02-07T14:24:37.079Z,64.30
2018-02-07T14:27:03.306Z,58.75
2018-02-07T14:29:30.409Z,63.28
2018-02-07T14:31:58.005Z,57.13
2018-02-07T14:34:24.969Z,54.30
2018-02-07T14:36:51.935Z,62.42
2018-02-07T14:39:18.201Z,65.43
2018-02-07T14:41:45.019Z,64.47
2018-02-07T14:44:11.478Z,61.10
2018-02-07T14:46:38.583Z,60.47
2018-02-07T14:49:05.528Z,66.07
2018-02-07T14:51:32.483Z,56.72
2018-02-07T14:53:59.413Z,58.08
2018-02-07T14:56:26.567Z,50.72
2018-02-07T14:58:53.641Z,55.58
2018-02-07T15:01:20.083Z,47.97
2018-02-07T15:03:47.710Z,69.65
2018-02-07T15:06:14.809Z,65.18
2018-02-07T15:08:41.149Z,55.70
2018-02-07T15:11:08.249Z,44.47
2018-02-07T15:13:35.448Z,43.13
2018-02-07T15:16:02.943Z,58.35
2018-02-07T15:18:29.887Z,55.00
2018-02-07T15:20:56.106Z,50.78
2018-02-07T15:23:23.095Z,52.58
2018-02-07T15:25:49.375Z,49.90
2018-02-07T15:28:16.326Z,54.08
2018-02-07T15:30:43.373Z,54.92
2018-02-07T15:33:10.333Z,54.25
2018-02-07T15:35:36.561Z,54.30
2018-02-07T15:38:03.075Z,59.00
2018-02-07T15:40:30.040Z,59.40
2018-02-07T15:42:56.267Z,57.58
2018-02-07T15:45:23.316Z,67.87
2018-02-07T15:47:49.617Z,67.15
2018-02-07T15:50:15.875Z,72.53
2018-02-07T15:52:42.114Z,70.18
2018-02-07T15:55:08.792Z,62.70
2018-02-07T15:57:35.134Z,72.30
2018-02-07T16:00:01.552Z,65.28
2018-02-07T16:02:29.266Z,67.40
2018-02-07T16:04:55.534Z,75.18
2018-02-07T16:07:22.510Z,58.38
2018-02-07T16:09:48.711Z,62.62
2018-02-07T16:12:15.279Z,61.20
2018-02-07T16:14:42.259Z,64.55
2018-02-07T16:17:09.129Z,67.82
2018-02-07T16:19:35.918Z,66.53
2018-02-07T16:22:02.884Z,55.22
2018-02-07T16:24:29.697Z,60.67
2018-02-07T16:26:56.992Z,76.32
2018-02-07T16:29:24.555Z,66.50
2018-02-07T16:31:52.511Z,65.05
2018-02-07T16:34:19.509Z,58.85
2018-02-07T16:36:46.062Z,69.45
2018-02-07T16:39:13.608Z,51.72
2018-02-07T16:41:40.584Z,62.30
2018-02-07T16:44:07.131Z,78.70
2018-02-07T16:46:34.162Z,64.75
2018-02-07T16:49:00.394Z,55.25
2018-02-07T16:51:28.047Z,60.63
2018-02-07T16:53:55.009Z,68.32
2018-02-07T16:56:21.496Z,67.18
2018-02-07T16:58:48.765Z,80.70
2018-02-07T17:01:15.829Z,75.87
2018-02-07T17:03:42.579Z,58.35
2018-02-07T17:06:09.840Z,65.68
2018-02-07T17:08:36.219Z,61.17
2018-02-07T17:11:02.759Z,69.30
2018-02-07T17:13:30.244Z,65.97
2018-02-07T17:15:56.494Z,54.03
2018-02-07T17:18:23.275Z,68.22
2018-02-07T17:20:51.492Z,61.70
2018-02-07T17:23:17.877Z,72.87
2018-02-07T17:25:45.245Z,65.10
2018-02-07T17:28:12.041Z,69.78
2018-02-07T17:30:38.730Z,57.75
2018-02-07T17:33:05.009Z,53.10
2018-02-07T17:35:32.237Z,64.90
2018-02-07T17:37:58.842Z,52.45
2018-02-07T17:40:25.879Z,64.12
2018-02-07T17:42:52.500Z,74.35
2018-02-07T17:45:19.639Z,72.47
2018-02-07T17:47:45.822Z,77.93
2018-02-07T17:50:12.046Z,71.40
2018-02-07T17:52:39.524Z,54.00
2018-02-07T17:55:05.900Z,70.60
2018-02-07T17:57:32.748Z,63.58
2018-02-07T17:59:59.237Z,75.97
2018-02-07T18:02:25.460Z,74.22
2018-02-07T18:04:51.752Z,69.97
2018-02-07T18:07:18.276Z,61.70
2018-02-07T18:09:45.382Z,63.20
2018-02-07T18:12:11.958Z,60.70
2018-02-07T18:14:39.457Z,58.58
2018-02-07T18:17:06.731Z,68.75
2018-02-07T18:19:32.938Z,63.85
2018-02-07T18:22:00.245Z,57.95
2018-02-07T18:24:26.418Z,70.93
2018-02-07T18:26:53.286Z,64.15
2018-02-07T18:29:19.994Z,59.80
2018-02-07T18:31:46.272Z,64.40
2018-02-07T18:34:14.440Z,75.70
2018-02-07T18:36:40.628Z,58.53
2018-02-07T18:39:07.105Z,54.78
2018-02-07T18:41:34.105Z,66.82
2018-02-07T18:44:00.688Z,58.05
2018-02-07T18:46:28.420Z,59.45
2018-02-07T18:48:55.525Z,58.42
2018-02-07T18:51:21.846Z,54.35
2018-02-07T18:53:48.408Z,66.68
2018-02-07T18:56:16.337Z,62.90
2018-02-07T18:58:42.510Z,57.28
2018-02-07T19:01:09.477Z,66.97
2018-02-07T19:03:36.680Z,73.72
2018-02-07T19:06:03.247Z,69.78
2018-02-07T19:08:30.334Z,72.65
2018-02-07T19:10:56.582Z,67.65
2018-02-07T19:13:22.813Z,81.12
2018-02-07T19:15:49.665Z,70.93
2018-02-07T19:18:16.738Z,87.22
2018-02-07T19:20:44.599Z,93.78
2018-02-07T19:23:10.809Z,85.82
2018-02-07T19:25:38.031Z,71.20
2018-02-07T19:28:05.152Z,70.07
2018-02-07T19:30:31.965Z,75.85
2018-02-07T19:32:59.392Z,71.37
2018-02-07T19:35:26.342Z,76.10
2018-02-07T19:37:52.550Z,66.78
2018-02-07T19:40:19.492Z,66.93
2018-02-07T19:42:47.277Z,62.15
2018-02-07T19:45:13.479Z,73.28
2018-02-07T19:47:40.361Z,67.62
2018-02-07T19:50:08.354Z,86.53
2018-02-07T19:52:35.415Z,75.20
2018-02-07T19:55:02.594Z,76.62
2018-02-07T19:57:30.420Z,68.30
2018-02-07T19:59:57.646Z,62.78
2018-02-07T20:02:24.795Z,67.57
2018-02-07T20:04:51.943Z,72.87
2018-02-07T20:07:18.906Z,64.93
2018-02-07T20:09:45.606Z,62.62
2018-02-07T20:12:11.874Z,65.68
2018-02-07T20:14:38.150Z,66.93
2018-02-07T20:17:05.241Z,58.00
2018-02-07T20:19:32.300Z,71.60
2018-02-07T20:21:58.610Z,67.43
2018-02-07T20:24:25.558Z,69.45
2018-02-07T20:26:52.534Z,68.45
2018-02-07T20:29:18.771Z,60.12
2018-02-07T20:31:44.986Z,60.97
2018-02-07T20:34:11.753Z,62.42
2018-02-07T20:36:38.258Z,58.85
2018-02-07T20:39:05.580Z,70.62
2018-02-07T20:41:33.136Z,61.80
2018-02-07T20:44:00.010Z,59.80
2018-02-07T20:46:26.819Z,65.25
2018-02-07T20:48:53.171Z,58.42
2018-02-07T20:51:19.497Z,71.12
2018-02-07T20:53:46.758Z,67.20
2018-02-07T20:56:13.831Z,65.00
2018-02-07T20:58:40.654Z,67.87
2018-02-07T21:01:07.120Z,75.90
2018-02-07T21:03:33.310Z,75.35
2018-02-07T21:05:59.544Z,59.67
2018-02-07T21:08:26.277Z,78.65
2018-02-07T21:10:53.088Z,57.58
2018-02-07T21:13:21.354Z,61.45
2018-02-07T21:15:47.687Z,81.22
2018-02-07T21:18:14.976Z,69.05
2018-02-07T21:20:41.903Z,81.32
2018-02-07T21:23:08.871Z,62.83
2018-02-07T21:25:35.479Z,57.58
2018-02-07T21:28:03.194Z,69.85
2018-02-07T21:30:29.431Z,70.05
2018-02-07T21:32:55.753Z,71.80
2018-02-07T21:35:22.759Z,70.53
2018-02-07T21:37:49.391Z,61.50
2018-02-07T21:40:17.566Z,64.70
2018-02-07T21:42:44.928Z,77.10
2018-02-07T21:45:11.678Z,75.32
2018-02-07T21:47:37.891Z,68.68
2018-02-07T21:50:04.967Z,61.10
2018-02-07T21:52:31.586Z,74.87
2018-02-07T21:54:58.643Z,72.05
2018-02-07T21:57:24.888Z,65.97
2018-02-07T21:59:52.029Z,71.15
2018-02-07T22:02:18.920Z,74.30
2018-02-07T22:04:46.264Z,70.62
2018-02-07T22:07:13.029Z,75.30
2018-02-07T22:09:40.003Z,76.45
2018-02-07T22:12:06.885Z,68.10
2018-02-07T22:14:33.447Z,68.60
2018-02-07T22:17:00.867Z,83.70
2018-02-07T22:19:27.194Z,75.95
2018-02-07T22:21:53.659Z,70.25
2018-02-07T22:24:20.317Z,62.00
2018-02-07T22:26:46.574Z,67.05
2018-02-07T22:29:12.918Z,71.78
2018-02-07T22:31:40.306Z,68.40
2018-02-07T22:34:06.661Z,67.15
2018-02-07T22:36:32.943Z,58.25
2018-02-07T22:38:59.725Z,60.53
2018-02-07T22:41:26.032Z,70.40
2018-02-07T22:43:52.341Z,71.57
2018-02-07T22:46:19.224Z,65.35
2018-02-07T22:48:46.281Z,57.92
2018-02-07T22:51:13.465Z,59.72
2018-02-07T22:53:40.326Z,71.28
2018-02-07T22:56:07.888Z,59.03
2018-02-07T22:58:34.905Z,61.88
2018-02-07T23:01:01.114Z,73.55
2018-02-07T23:03:28.543Z,66.60
2018-02-07T23:05:57.801Z,88.37
2018-02-07T23:08:24.218Z,77.07
2018-02-07T23:10:50.423Z,80.10
2018-02-07T23:13:17.218Z,84.80
2018-02-07T23:15:43.705Z,73.15
2018-02-07T23:18:11.039Z,71.12
2018-02-07T23:20:38.687Z,75.28
2018-02-07T23:23:04.949Z,69.40
2018-02-07T23:25:32.261Z,74.47
2018-02-07T23:27:59.067Z,78.68
2018-02-07T23:30:25.351Z,69.80
2018-02-07T23:32:53.002Z,92.60
2018-02-07T23:35:20.248Z,101.53
2018-02-07T23:37:46.866Z,97.88
2018-02-07T23:40:13.233Z,84.07
2018-02-07T23:42:40.233Z,78.78
2018-02-07T23:45:06.521Z,95.68
2018-02-07T23:47:32.749Z,73.15
2018-02-07T23:49:58.986Z,67.93
2018-02-07T23:52:25.712Z,65.25
2018-02-07T23:54:52.746Z,68.80
2018-02-07T23:57:20.365Z,65.75
2018-02-07T23:59:46.741Z,71.85
